createdAt,value
2018-09-30T00:00:14.026Z,86.99
2018-09-30T00:02:44.475Z,86.58
2018-09-30T00:05:14.914Z,87.17
2018-09-30T00:07:45.974Z,88.57
2018-09-30T00:10:16.276Z,89.64
2018-09-30T00:12:47.647Z,89.61
2018-09-30T00:15:18.104Z,89.74
2018-09-30T00:17:48.539Z,89.36
2018-09-30T00:20:18.908Z,88.69
2018-09-30T00:22:49.226Z,87.97
2018-09-30T00:25:24.743Z,87.53
2018-09-30T00:27:55.167Z,87.14
2018-09-30T00:30:25.428Z,87.55
2018-09-30T00:32:58.118Z,87.54
2018-09-30T00:35:29.159Z,87.27
2018-09-30T00:37:59.502Z,88.08
2018-09-30T00:40:29.846Z,87.98
2018-09-30T00:43:00.174Z,87.44
2018-09-30T00:45:30.537Z,87.01
2018-09-30T00:48:00.939Z,89.28
2018-09-30T00:50:31.352Z,88.57
2018-09-30T00:53:01.841Z,89.61
2018-09-30T00:55:32.250Z,91.08
2018-09-30T00:58:02.882Z,89.00
2018-09-30T01:00:33.692Z,89.61
2018-09-30T01:03:04.679Z,90.47
2018-09-30T01:05:35.001Z,89.88
2018-09-30T01:08:07.810Z,90.57
2018-09-30T01:10:38.367Z,90.50
2018-09-30T01:13:08.696Z,90.28
2018-09-30T01:15:39.050Z,91.16
2018-09-30T01:18:09.377Z,90.31
2018-09-30T01:20:39.664Z,90.14
2018-09-30T01:23:09.967Z,92.49
2018-09-30T01:25:40.259Z,90.15
2018-09-30T01:28:10.589Z,90.03
2018-09-30T01:30:40.999Z,90.40
2018-09-30T01:33:11.973Z,90.40
2018-09-30T01:35:42.494Z,91.09
2018-09-30T01:38:12.785Z,91.70
2018-09-30T01:40:43.184Z,91.31
2018-09-30T01:43:13.628Z,90.90
2018-09-30T01:45:43.974Z,91.09
2018-09-30T01:48:14.267Z,91.90
2018-09-30T01:50:44.563Z,91.46
2018-09-30T01:53:14.868Z,90.93
2018-09-30T01:55:45.122Z,90.11
2018-09-30T01:58:15.452Z,90.28
2018-09-30T02:00:45.797Z,90.89
2018-09-30T02:03:16.077Z,92.18
2018-09-30T02:05:46.415Z,91.67
2018-09-30T02:08:16.771Z,92.14
2018-09-30T02:10:47.176Z,91.98
2018-09-30T02:13:17.438Z,94.33
2018-09-30T02:15:47.723Z,94.35
2018-09-30T02:18:18.151Z,93.75
2018-09-30T02:20:48.423Z,93.62
2018-09-30T02:23:19.966Z,91.89
2018-09-30T02:25:50.294Z,91.53
2018-09-30T02:28:20.636Z,93.03
2018-09-30T02:30:50.948Z,92.08
2018-09-30T02:33:21.202Z,92.34
2018-09-30T02:35:51.853Z,91.84
2018-09-30T02:38:22.105Z,91.92
2018-09-30T02:40:52.322Z,92.23
2018-09-30T02:43:22.731Z,92.36
2018-09-30T02:45:53.000Z,93.30
2018-09-30T02:48:23.357Z,93.46
2018-09-30T02:50:53.647Z,93.81
2018-09-30T02:53:24.152Z,93.64
2018-09-30T02:55:54.433Z,95.24
2018-09-30T02:58:24.667Z,94.67
2018-09-30T03:00:55.013Z,93.53
2018-09-30T03:03:25.283Z,93.63
2018-09-30T03:05:55.566Z,93.44
2018-09-30T03:08:31.598Z,94.37
2018-09-30T03:11:01.970Z,95.43
2018-09-30T03:13:32.310Z,96.42
2018-09-30T03:16:03.436Z,96.77
2018-09-30T03:18:34.630Z,96.21
2018-09-30T03:21:04.905Z,95.05
2018-09-30T03:23:35.155Z,95.04
2018-09-30T03:26:05.428Z,95.35
2018-09-30T03:28:35.644Z,95.27
2018-09-30T03:31:06.015Z,95.40
2018-09-30T03:33:36.791Z,95.56
2018-09-30T03:36:08.099Z,96.20
2018-09-30T03:38:38.322Z,95.20
2018-09-30T03:41:08.731Z,96.36
2018-09-30T03:43:39.035Z,96.24
2018-09-30T03:46:09.297Z,96.73
2018-09-30T03:48:39.603Z,97.33
2018-09-30T03:51:11.024Z,96.93
2018-09-30T03:53:41.359Z,98.17
2018-09-30T03:56:11.673Z,97.41
2018-09-30T03:58:41.993Z,97.14
2018-09-30T04:01:12.384Z,96.67
2018-09-30T04:03:42.995Z,96.50
2018-09-30T04:06:13.412Z,96.89
2018-09-30T04:08:43.789Z,96.11
2018-09-30T04:11:14.141Z,95.33
2018-09-30T04:13:44.475Z,95.46
2018-09-30T04:16:14.759Z,96.92
2018-09-30T04:18:45.130Z,95.96
2018-09-30T04:21:15.569Z,96.33
2018-09-30T04:23:45.875Z,95.90
2018-09-30T04:26:16.185Z,95.66
2018-09-30T04:28:46.473Z,96.53
2018-09-30T04:31:16.800Z,96.98
2018-09-30T04:33:47.127Z,97.40
2018-09-30T04:36:17.651Z,98.00
2018-09-30T04:38:47.903Z,97.79
2018-09-30T04:41:21.913Z,98.20
2018-09-30T04:43:52.193Z,98.41
2018-09-30T04:46:22.516Z,98.19
2018-09-30T04:48:52.927Z,97.84
2018-09-30T04:51:23.215Z,98.28
2018-09-30T04:53:53.519Z,97.77
2018-09-30T04:56:23.761Z,99.08
2018-09-30T04:58:54.187Z,99.17
2018-09-30T05:01:24.555Z,99.56
2018-09-30T05:03:54.959Z,99.25
2018-09-30T05:06:25.633Z,99.29
2018-09-30T05:08:55.979Z,98.16
2018-09-30T05:11:26.465Z,98.83
2018-09-30T05:13:56.823Z,98.78
2018-09-30T05:16:27.258Z,98.43
2018-09-30T05:18:57.988Z,98.81
2018-09-30T05:21:28.350Z,98.78
2018-09-30T05:23:59.169Z,98.18
2018-09-30T05:26:29.421Z,98.25
2018-09-30T05:28:59.730Z,96.71
2018-09-30T05:31:30.051Z,97.26
2018-09-30T05:34:00.491Z,98.13
2018-09-30T05:36:30.814Z,97.50
2018-09-30T05:39:01.380Z,98.11
2018-09-30T05:44:32.132Z,98.37
2018-09-30T05:47:03.014Z,97.52
2018-09-30T05:49:33.875Z,97.97
2018-09-30T05:52:04.000Z,96.94
2018-09-30T05:54:34.103Z,94.14
2018-09-30T05:57:04.211Z,91.96
2018-09-30T05:59:34.293Z,89.94
2018-09-30T06:02:04.729Z,86.77
2018-09-30T06:04:35.266Z,85.84
2018-09-30T06:07:09.264Z,85.29
2018-09-30T06:09:39.723Z,85.67
2018-09-30T06:12:18.874Z,86.25
2018-09-30T06:14:52.624Z,86.48
2018-09-30T06:17:27.790Z,86.56
2018-09-30T06:19:58.545Z,86.82
2018-09-30T06:22:28.777Z,87.20
2018-09-30T06:24:58.868Z,86.49
2018-09-30T06:27:28.982Z,86.51
2018-09-30T06:29:59.084Z,85.92
2018-09-30T06:32:30.013Z,84.73
2018-09-30T06:35:00.144Z,83.70
2018-09-30T06:37:30.369Z,82.88
2018-09-30T06:40:00.502Z,82.80
2018-09-30T06:42:30.632Z,81.99
2018-09-30T06:45:00.897Z,81.23
2018-09-30T06:47:31.035Z,80.22
2018-09-30T06:50:04.241Z,78.57
2018-09-30T06:52:34.609Z,74.96
2018-09-30T06:55:04.940Z,74.33
2018-09-30T06:57:35.415Z,71.85
2018-09-30T07:00:05.999Z,69.10
2018-09-30T07:02:36.182Z,68.54
2018-09-30T07:05:06.381Z,67.29
2018-09-30T07:07:36.554Z,65.89
2018-09-30T07:10:06.709Z,64.61
2018-09-30T07:12:36.910Z,63.43
2018-09-30T07:15:07.100Z,62.58
2018-09-30T07:17:37.206Z,61.40
2018-09-30T07:20:10.754Z,60.49
2018-09-30T07:22:40.873Z,60.59
2018-09-30T07:25:10.955Z,60.32
2018-09-30T07:27:41.114Z,60.94
2018-09-30T07:30:11.214Z,61.09
2018-09-30T07:32:41.403Z,61.10
2018-09-30T07:35:11.698Z,60.34
2018-09-30T07:37:42.086Z,58.53
2018-09-30T07:40:13.197Z,58.62
2018-09-30T07:42:44.474Z,58.19
2018-09-30T07:45:15.621Z,56.92
2018-09-30T07:47:45.918Z,55.40
2018-09-30T07:50:16.460Z,55.13
2018-09-30T07:52:47.565Z,53.29
2018-09-30T07:55:18.956Z,51.24
2018-09-30T07:57:49.365Z,49.57
2018-09-30T08:00:19.990Z,48.11
2018-09-30T08:02:50.755Z,47.09
2018-09-30T08:05:21.595Z,48.00
2018-09-30T08:07:55.122Z,46.90
2018-09-30T08:10:26.335Z,48.69
2018-09-30T08:12:56.515Z,47.83
2018-09-30T08:15:26.954Z,47.37
2018-09-30T08:17:57.319Z,45.57
2018-09-30T08:20:27.471Z,46.29
2018-09-30T08:22:58.412Z,45.52
2018-09-30T08:28:07.198Z,46.76
2018-09-30T08:30:37.955Z,45.97
2018-09-30T08:33:09.097Z,45.56
2018-09-30T08:35:40.177Z,42.94
2018-09-30T08:38:16.118Z,44.51
2018-09-30T08:40:52.114Z,43.75
2018-09-30T08:43:23.406Z,43.31
2018-09-30T08:45:54.020Z,42.79
2018-09-30T08:48:24.476Z,43.61
2018-09-30T08:50:55.538Z,41.78
2018-09-30T08:53:27.122Z,43.15
2018-09-30T08:55:58.271Z,43.19
2018-09-30T08:58:30.040Z,43.82
2018-09-30T09:01:00.806Z,42.04
2018-09-30T09:03:31.626Z,41.31
2018-09-30T09:06:02.173Z,42.17
2018-09-30T09:08:33.116Z,41.49
2018-09-30T09:11:04.042Z,39.91
2018-09-30T09:13:35.365Z,40.90
2018-09-30T09:16:06.549Z,38.81
2018-09-30T09:18:37.506Z,37.67
2018-09-30T09:21:08.146Z,38.03
2018-09-30T09:23:39.036Z,37.52
2018-09-30T09:26:10.384Z,36.49
2018-09-30T09:28:41.811Z,35.78
2018-09-30T09:31:14.279Z,34.14
2018-09-30T09:33:44.884Z,32.95
2018-09-30T09:36:15.402Z,34.59
2018-09-30T09:38:46.617Z,33.57
2018-09-30T09:41:17.268Z,32.95
2018-09-30T09:43:48.179Z,32.64
2018-09-30T09:46:24.830Z,33.45
2018-09-30T09:48:55.199Z,35.33
2018-09-30T09:51:25.720Z,36.45
2018-09-30T09:53:56.172Z,35.67
2018-09-30T09:56:26.809Z,34.76
2018-09-30T09:58:57.260Z,33.52
2018-09-30T10:01:27.701Z,32.70
2018-09-30T10:03:58.157Z,33.42
2018-09-30T10:06:28.639Z,33.65
2018-09-30T10:08:59.430Z,33.85
2018-09-30T10:11:30.588Z,32.46
2018-09-30T10:14:01.372Z,31.82
2018-09-30T10:16:31.812Z,33.66
2018-09-30T10:19:02.865Z,34.36
2018-09-30T10:21:33.345Z,34.63
2018-09-30T10:24:03.797Z,33.80
2018-09-30T10:26:34.252Z,32.46
2018-09-30T10:29:04.640Z,32.64
2018-09-30T10:31:35.141Z,33.28
2018-09-30T10:34:05.657Z,32.96
2018-09-30T10:36:36.136Z,33.03
2018-09-30T10:39:09.431Z,33.02
2018-09-30T10:41:40.404Z,30.19
2018-09-30T10:44:10.996Z,29.25
2018-09-30T10:46:41.443Z,31.56
2018-09-30T10:49:11.979Z,32.15
2018-09-30T10:51:42.387Z,32.49
2018-09-30T10:54:12.965Z,32.19
2018-09-30T10:56:43.346Z,32.22
2018-09-30T10:59:13.681Z,32.10
2018-09-30T11:01:44.023Z,32.74
2018-09-30T11:04:14.457Z,32.25
2018-09-30T11:06:44.949Z,31.87
2018-09-30T11:09:15.383Z,31.08
2018-09-30T11:11:47.198Z,32.20
2018-09-30T11:14:17.705Z,31.97
2018-09-30T11:16:48.219Z,33.48
2018-09-30T11:19:18.726Z,32.07
2018-09-30T11:21:49.184Z,31.24
2018-09-30T11:24:19.856Z,31.42
2018-09-30T11:26:51.195Z,30.37
2018-09-30T11:29:22.630Z,31.09
2018-09-30T11:31:53.256Z,31.04
2018-09-30T11:34:24.074Z,30.01
2018-09-30T11:36:54.849Z,31.44
2018-09-30T11:39:25.646Z,31.48
2018-09-30T11:41:56.878Z,30.75
2018-09-30T11:44:34.178Z,29.96
2018-09-30T11:47:05.553Z,28.52
2018-09-30T11:49:36.603Z,28.33
2018-09-30T11:52:08.533Z,28.27
2018-09-30T11:54:40.868Z,29.46
2018-09-30T11:57:11.762Z,27.88
2018-09-30T11:59:43.125Z,29.64
2018-09-30T12:02:15.776Z,31.25
2018-09-30T12:04:46.678Z,30.21
2018-09-30T12:07:17.717Z,29.83
2018-09-30T12:09:48.441Z,30.78
2018-09-30T12:12:19.313Z,31.08
2018-09-30T12:14:52.417Z,30.77
2018-09-30T12:17:23.458Z,30.46
2018-09-30T12:19:53.935Z,29.88
2018-09-30T12:22:24.708Z,28.81
2018-09-30T12:24:55.644Z,29.73
2018-09-30T12:27:26.277Z,30.19
2018-09-30T12:29:56.774Z,28.49
2018-09-30T12:32:27.308Z,28.20
2018-09-30T12:34:57.826Z,27.78
2018-09-30T12:37:28.324Z,29.28
2018-09-30T12:39:58.855Z,29.87
2018-09-30T12:42:29.450Z,29.21
2018-09-30T12:44:59.821Z,29.98
2018-09-30T12:47:30.401Z,29.32
2018-09-30T12:50:00.865Z,28.65
2018-09-30T12:52:31.250Z,28.36
2018-09-30T12:55:01.779Z,28.21
2018-09-30T12:57:32.361Z,26.83
2018-09-30T13:00:03.374Z,25.88
2018-09-30T13:02:34.739Z,25.92
2018-09-30T13:05:05.783Z,26.98
2018-09-30T13:07:42.592Z,27.04
2018-09-30T13:10:16.298Z,27.48
2018-09-30T13:12:46.868Z,27.63
2018-09-30T13:15:17.320Z,27.79
2018-09-30T13:17:48.136Z,28.50
2018-09-30T13:20:18.639Z,27.05
2018-09-30T13:22:49.034Z,26.80
2018-09-30T13:25:21.278Z,27.11
2018-09-30T13:27:51.807Z,26.95
2018-09-30T13:30:22.364Z,26.64
2018-09-30T13:32:52.760Z,28.20
2018-09-30T13:35:23.239Z,29.30
2018-09-30T13:37:53.967Z,29.26
2018-09-30T13:40:24.959Z,30.74
2018-09-30T13:42:55.362Z,30.58
2018-09-30T13:45:25.849Z,30.67
2018-09-30T13:47:56.321Z,30.23
2018-09-30T13:50:26.819Z,29.16
2018-09-30T13:52:57.215Z,29.58
2018-09-30T13:55:27.668Z,29.13
2018-09-30T13:57:58.175Z,28.84
2018-09-30T14:00:28.645Z,28.50
2018-09-30T14:02:59.122Z,30.27
2018-09-30T14:05:29.863Z,30.52
2018-09-30T14:08:00.412Z,30.08
2018-09-30T14:10:30.903Z,29.98
2018-09-30T14:13:01.389Z,30.57
2018-09-30T14:15:31.940Z,31.46
2018-09-30T14:18:02.336Z,32.26
2018-09-30T14:20:33.130Z,30.77
2018-09-30T14:23:03.806Z,30.70
2018-09-30T14:25:34.477Z,29.32
2018-09-30T14:28:05.092Z,28.72
2018-09-30T14:30:35.752Z,29.73
2018-09-30T14:33:06.596Z,30.15
2018-09-30T14:35:37.162Z,30.19
2018-09-30T14:38:07.980Z,30.42
2018-09-30T14:40:38.471Z,29.69
2018-09-30T14:43:09.150Z,28.92
2018-09-30T14:45:39.775Z,29.90
2018-09-30T14:48:10.496Z,30.34
2018-09-30T14:50:41.160Z,29.68
2018-09-30T14:53:12.305Z,27.38
2018-09-30T14:55:42.924Z,28.38
2018-09-30T14:58:13.462Z,28.46
2018-09-30T15:00:44.089Z,27.56
2018-09-30T15:03:14.667Z,30.14
2018-09-30T15:05:45.314Z,30.72
2018-09-30T15:08:16.245Z,31.08
2018-09-30T15:10:46.968Z,31.34
2018-09-30T15:13:17.464Z,30.59
2018-09-30T15:15:48.339Z,29.77
2018-09-30T15:18:18.966Z,30.47
2018-09-30T15:20:50.907Z,30.34
2018-09-30T15:23:21.417Z,29.85
2018-09-30T15:25:52.061Z,29.97
2018-09-30T15:28:22.545Z,30.14
2018-09-30T15:30:53.198Z,30.83
2018-09-30T15:33:23.720Z,32.14
2018-09-30T15:35:54.338Z,32.34
2018-09-30T15:38:25.527Z,32.69
2018-09-30T15:40:56.031Z,32.75
2018-09-30T15:43:26.427Z,32.55
2018-09-30T15:45:57.025Z,34.27
2018-09-30T15:48:27.680Z,34.16
2018-09-30T15:50:58.211Z,34.92
2018-09-30T15:53:28.721Z,34.19
2018-09-30T15:55:59.122Z,35.32
2018-09-30T15:58:29.726Z,35.48
2018-09-30T16:01:00.258Z,36.49
2018-09-30T16:03:30.654Z,36.82
2018-09-30T16:06:06.920Z,37.59
2018-09-30T16:08:37.333Z,38.27
2018-09-30T16:11:07.940Z,39.51
2018-09-30T16:13:38.446Z,39.81
2018-09-30T16:16:09.415Z,40.03
2018-09-30T16:18:39.805Z,40.57
2018-09-30T16:21:10.547Z,41.11
2018-09-30T16:23:40.818Z,41.66
2018-09-30T16:26:11.288Z,42.58
2018-09-30T16:28:42.425Z,43.41
2018-09-30T16:31:12.809Z,43.14
2018-09-30T16:33:43.422Z,43.58
2018-09-30T16:36:18.395Z,44.16
2018-09-30T16:38:48.952Z,45.22
2018-09-30T16:41:19.411Z,46.14
2018-09-30T16:43:49.771Z,45.81
2018-09-30T16:46:29.063Z,48.52
2018-09-30T16:48:59.591Z,47.67
2018-09-30T16:51:30.123Z,50.91
2018-09-30T16:54:00.641Z,50.79
2018-09-30T16:56:31.707Z,52.20
2018-09-30T16:59:02.134Z,52.10
2018-09-30T17:01:32.677Z,53.75
2018-09-30T17:04:03.096Z,53.37
2018-09-30T17:06:33.626Z,54.96
2018-09-30T17:09:05.671Z,54.80
2018-09-30T17:11:36.176Z,55.33
2018-09-30T17:14:06.578Z,57.43
2018-09-30T17:16:37.122Z,59.17
2018-09-30T17:19:12.010Z,57.90
2018-09-30T17:21:42.536Z,58.81
2018-09-30T17:24:12.913Z,60.44
2018-09-30T17:26:43.469Z,61.36
2018-09-30T17:29:13.932Z,61.52
2018-09-30T17:31:45.340Z,62.29
2018-09-30T17:34:16.097Z,63.30
2018-09-30T17:36:46.880Z,64.03
2018-09-30T17:39:17.315Z,64.42
2018-09-30T17:41:48.319Z,63.80
2018-09-30T17:44:18.766Z,63.47
2018-09-30T17:46:56.836Z,64.29
2018-09-30T17:49:27.126Z,65.29
2018-09-30T17:51:59.156Z,65.11
2018-09-30T17:54:29.764Z,65.90
2018-09-30T17:57:06.133Z,66.21
2018-09-30T17:59:37.007Z,65.81
2018-09-30T18:02:07.560Z,66.21
2018-09-30T18:04:38.135Z,66.05
2018-09-30T18:07:08.642Z,66.44
2018-09-30T18:09:38.993Z,69.73
2018-09-30T18:12:09.645Z,68.78
2018-09-30T18:14:40.276Z,69.77
2018-09-30T18:17:14.675Z,70.65
2018-09-30T18:19:45.081Z,69.66
2018-09-30T18:22:15.884Z,70.06
2018-09-30T18:24:46.604Z,71.98
2018-09-30T18:27:21.154Z,71.69
2018-09-30T18:29:51.733Z,72.77
2018-09-30T18:32:22.128Z,72.08
2018-09-30T18:34:58.663Z,72.87
2018-09-30T18:37:29.777Z,73.52
2018-09-30T18:40:02.063Z,72.91
2018-09-30T18:42:34.827Z,72.80
2018-09-30T18:45:05.599Z,73.77
2018-09-30T18:47:39.113Z,73.88
2018-09-30T18:50:09.828Z,73.79
2018-09-30T18:52:42.288Z,75.71
2018-09-30T18:55:12.912Z,75.74
2018-09-30T18:57:46.321Z,74.14
2018-09-30T19:03:10.635Z,74.41
2018-09-30T19:05:42.793Z,75.85
2018-09-30T19:08:14.760Z,75.42
2018-09-30T19:10:45.227Z,76.24
2018-09-30T19:13:15.814Z,75.97
2018-09-30T19:15:47.360Z,77.78
2018-09-30T19:18:17.776Z,78.33
2018-09-30T19:20:48.334Z,77.72
2018-09-30T19:23:19.069Z,79.89
2018-09-30T19:25:49.528Z,80.81
2018-09-30T19:28:19.983Z,80.45
2018-09-30T19:30:50.563Z,80.78
2018-09-30T19:33:21.020Z,80.71
2018-09-30T19:35:51.446Z,80.92
2018-09-30T19:38:21.922Z,81.00
2018-09-30T19:40:52.611Z,80.91
2018-09-30T19:43:23.000Z,80.88
2018-09-30T19:45:53.577Z,80.78
2018-09-30T19:48:24.106Z,81.47
2018-09-30T19:50:54.480Z,82.18
2018-09-30T19:53:24.983Z,82.48
2018-09-30T19:55:55.634Z,83.07
2018-09-30T19:58:26.071Z,82.63
2018-09-30T20:00:56.690Z,82.02
2018-09-30T20:03:27.181Z,82.91
2018-09-30T20:05:57.688Z,82.98
2018-09-30T20:08:28.152Z,84.10
2018-09-30T20:10:58.778Z,84.81
2018-09-30T20:13:29.258Z,85.57
2018-09-30T20:15:59.813Z,85.79
2018-09-30T20:18:30.931Z,85.73
2018-09-30T20:21:01.325Z,85.39
2018-09-30T20:23:32.075Z,85.60
2018-09-30T20:26:02.632Z,85.91
2018-09-30T20:28:37.419Z,86.18
2018-09-30T20:31:07.654Z,86.28
2018-09-30T20:33:38.216Z,86.18
2018-09-30T20:36:08.595Z,86.52
2018-09-30T20:38:39.034Z,87.23
2018-09-30T20:41:09.448Z,86.92
2018-09-30T20:43:40.011Z,86.42
2018-09-30T20:46:11.239Z,87.10
2018-09-30T20:48:41.694Z,87.52
2018-09-30T20:51:13.180Z,88.01
2018-09-30T20:53:43.712Z,88.15
2018-09-30T20:56:14.317Z,87.55
2018-09-30T20:58:47.641Z,87.32
2018-09-30T21:01:18.684Z,88.05
2018-09-30T21:03:49.082Z,89.08
2018-09-30T21:06:30.656Z,88.50
2018-09-30T21:09:01.151Z,89.72
2018-09-30T21:11:31.540Z,89.51
2018-09-30T21:14:02.044Z,89.99
2018-09-30T21:16:32.573Z,90.91
2018-09-30T21:19:03.063Z,91.50
2018-09-30T21:21:33.576Z,91.60
2018-09-30T21:24:04.373Z,90.98
2018-09-30T21:26:35.059Z,90.72
2018-09-30T21:29:05.643Z,89.94
2018-09-30T21:31:36.175Z,91.32
2018-09-30T21:34:07.632Z,91.47
2018-09-30T21:36:38.160Z,91.37
2018-09-30T21:39:10.386Z,91.20
2018-09-30T21:41:40.770Z,91.13
2018-09-30T21:44:12.198Z,91.62
2018-09-30T21:46:42.707Z,91.59
2018-09-30T21:49:13.849Z,92.54
2018-09-30T21:51:44.278Z,92.56
2018-09-30T21:54:14.902Z,92.73
2018-09-30T21:56:45.332Z,93.11
2018-09-30T21:59:17.381Z,92.72
2018-09-30T22:01:47.964Z,93.57
2018-09-30T22:04:18.341Z,93.57
2018-09-30T22:06:48.751Z,93.44
2018-09-30T22:09:22.310Z,93.00
2018-09-30T22:11:52.825Z,93.88
2018-09-30T22:14:23.687Z,93.31
2018-09-30T22:16:54.173Z,93.16
2018-09-30T22:19:24.923Z,92.82
2018-09-30T22:21:55.209Z,92.22
2018-09-30T22:24:25.553Z,91.82
2018-09-30T22:26:56.031Z,93.54
2018-09-30T22:29:26.471Z,93.37
2018-09-30T22:31:56.857Z,93.62
2018-09-30T22:34:28.090Z,93.72
2018-09-30T22:36:58.729Z,93.53
2018-09-30T22:39:29.069Z,93.93
2018-09-30T22:41:59.580Z,93.88
2018-09-30T22:44:30.055Z,93.37
2018-09-30T22:47:00.399Z,94.61
2018-09-30T22:49:30.923Z,95.36
2018-09-30T22:52:03.393Z,95.20
2018-09-30T22:54:33.738Z,94.68
2018-09-30T22:57:04.892Z,94.47
2018-09-30T22:59:35.225Z,94.42
2018-09-30T23:02:05.891Z,94.38
2018-09-30T23:04:36.347Z,94.72
2018-09-30T23:07:06.700Z,95.54
2018-09-30T23:09:37.079Z,95.77
2018-09-30T23:12:08.001Z,96.45
2018-09-30T23:14:38.556Z,96.54
2018-09-30T23:17:09.546Z,96.75
2018-09-30T23:19:39.948Z,96.86
2018-09-30T23:22:10.314Z,96.50
2018-09-30T23:24:40.696Z,96.81
2018-09-30T23:27:11.018Z,96.61
2018-09-30T23:29:41.392Z,96.15
2018-09-30T23:32:11.760Z,96.01
2018-09-30T23:34:42.137Z,95.40
2018-09-30T23:37:13.996Z,95.33
2018-09-30T23:39:46.329Z,94.92
2018-09-30T23:42:16.764Z,95.28
2018-09-30T23:44:47.756Z,95.09
2018-09-30T23:47:18.047Z,96.58
2018-09-30T23:49:48.481Z,96.14
2018-09-30T23:52:18.800Z,96.38
2018-09-30T23:54:52.368Z,96.50
2018-09-30T23:57:22.689Z,97.37
2018-09-30T23:59:53.161Z,98.77
